sensor_id;sensor_type;location;lat;lon;timestamp;pressure;altitude;pressure_sealevel;temperature;humidity
43115;BME280;28727;50.068;14.452;2023-10-19T00:00:21;98222.75;;;6.04;67.47
43115;BME280;28727;50.068;14.452;2023-10-19T00:02:54;98219.97;;;6.05;67.08
43115;BME280;28727;50.068;14.452;2023-10-19T00:05:30;98208.84;;;6.03;67.63
43115;BME280;28727;50.068;14.452;2023-10-19T00:08:05;98198.19;;;6.05;67.63
43115;BME280;28727;50.068;14.452;2023-10-19T00:10:54;98180.16;;;6.10;67.47
43115;BME280;28727;50.068;14.452;2023-10-19T00:13:45;98184.09;;;6.06;67.16
43115;BME280;28727;50.068;14.452;2023-10-19T00:16:17;98175.44;;;5.97;68.06
43115;BME280;28727;50.068;14.452;2023-10-19T00:18:52;98170.03;;;5.99;67.67
43115;BME280;28727;50.068;14.452;2023-10-19T00:21:24;98162.47;;;6.04;68.09
43115;BME280;28727;50.068;14.452;2023-10-19T00:24:01;98160.31;;;6.07;67.23
43115;BME280;28727;50.068;14.452;2023-10-19T00:26:40;98159.34;;;6.08;67.45
43115;BME280;28727;50.068;14.452;2023-10-19T00:29:22;98162.78;;;6.09;67.86
43115;BME280;28727;50.068;14.452;2023-10-19T00:32:04;98177.16;;;6.13;67.66
43115;BME280;28727;50.068;14.452;2023-10-19T00:34:41;98189.28;;;6.22;67.77
43115;BME280;28727;50.068;14.452;2023-10-19T00:37:21;98182.03;;;6.32;67.27
43115;BME280;28727;50.068;14.452;2023-10-19T00:40:01;98182.81;;;6.41;67.19
43115;BME280;28727;50.068;14.452;2023-10-19T00:42:55;98167.00;;;6.49;66.92
43115;BME280;28727;50.068;14.452;2023-10-19T00:45:27;98164.06;;;6.52;66.51
43115;BME280;28727;50.068;14.452;2023-10-19T00:47:59;98174.06;;;6.48;66.30
43115;BME280;28727;50.068;14.452;2023-10-19T00:50:32;98168.34;;;6.45;66.26
43115;BME280;28727;50.068;14.452;2023-10-19T00:53:07;98150.97;;;6.44;66.60
43115;BME280;28727;50.068;14.452;2023-10-19T00:55:40;98145.91;;;6.42;66.21
43115;BME280;28727;50.068;14.452;2023-10-19T00:58:15;98154.94;;;6.40;66.29
43115;BME280;28727;50.068;14.452;2023-10-19T01:00:49;98149.69;;;6.40;66.58
43115;BME280;28727;50.068;14.452;2023-10-19T01:03:25;98151.16;;;6.42;66.23
43115;BME280;28727;50.068;14.452;2023-10-19T01:06:04;98144.47;;;6.40;66.67
43115;BME280;28727;50.068;14.452;2023-10-19T01:08:45;98142.50;;;6.42;66.66
43115;BME280;28727;50.068;14.452;2023-10-19T01:11:20;98133.44;;;6.44;66.02
43115;BME280;28727;50.068;14.452;2023-10-19T01:13:52;98136.06;;;6.44;66.36
43115;BME280;28727;50.068;14.452;2023-10-19T01:16:29;98136.88;;;6.45;66.25
43115;BME280;28727;50.068;14.452;2023-10-19T01:19:04;98131.81;;;6.43;66.41
43115;BME280;28727;50.068;14.452;2023-10-19T01:21:39;98133.56;;;6.51;66.32
43115;BME280;28727;50.068;14.452;2023-10-19T01:24:20;98132.88;;;6.57;65.77
43115;BME280;28727;50.068;14.452;2023-10-19T01:27:25;98111.59;;;6.52;65.80
43115;BME280;28727;50.068;14.452;2023-10-19T01:29:57;98116.88;;;6.44;66.20
43115;BME280;28727;50.068;14.452;2023-10-19T01:32:34;98109.03;;;6.44;66.54
43115;BME280;28727;50.068;14.452;2023-10-19T01:35:06;98112.59;;;6.51;65.81
43115;BME280;28727;50.068;14.452;2023-10-19T01:37:39;98114.91;;;6.46;66.41
43115;BME280;28727;50.068;14.452;2023-10-19T01:40:11;98111.75;;;6.50;66.14
43115;BME280;28727;50.068;14.452;2023-10-19T01:42:51;98115.22;;;6.51;66.64
43115;BME280;28727;50.068;14.452;2023-10-19T01:45:29;98123.88;;;6.60;66.31
43115;BME280;28727;50.068;14.452;2023-10-19T01:48:05;98127.22;;;6.68;65.87
43115;BME280;28727;50.068;14.452;2023-10-19T01:50:37;98127.69;;;6.72;65.94
43115;BME280;28727;50.068;14.452;2023-10-19T01:53:13;98119.13;;;6.78;65.80
43115;BME280;28727;50.068;14.452;2023-10-19T01:55:47;98119.44;;;6.83;65.60
43115;BME280;28727;50.068;14.452;2023-10-19T01:58:26;98117.09;;;6.88;65.82
43115;BME280;28727;50.068;14.452;2023-10-19T02:01:04;98107.34;;;6.96;65.10
43115;BME280;28727;50.068;14.452;2023-10-19T02:03:58;98096.13;;;7.03;65.01
43115;BME280;28727;50.068;14.452;2023-10-19T02:06:34;98098.03;;;7.09;64.83
43115;BME280;28727;50.068;14.452;2023-10-19T02:09:15;98090.28;;;7.15;64.53
43115;BME280;28727;50.068;14.452;2023-10-19T02:11:50;98096.63;;;7.21;64.50
43115;BME280;28727;50.068;14.452;2023-10-19T02:14:27;98083.97;;;7.24;64.29
43115;BME280;28727;50.068;14.452;2023-10-19T02:17:06;98080.53;;;7.24;64.24
43115;BME280;28727;50.068;14.452;2023-10-19T02:19:44;98061.50;;;7.22;64.18
43115;BME280;28727;50.068;14.452;2023-10-19T02:22:19;98061.06;;;7.18;64.35
43115;BME280;28727;50.068;14.452;2023-10-19T02:24:51;98045.63;;;7.15;64.59
43115;BME280;28727;50.068;14.452;2023-10-19T02:27:26;98044.38;;;7.11;64.41
43115;BME280;28727;50.068;14.452;2023-10-19T02:30:06;98029.59;;;7.10;64.56
43115;BME280;28727;50.068;14.452;2023-10-19T02:32:39;97999.81;;;7.03;64.98
43115;BME280;28727;50.068;14.452;2023-10-19T02:35:21;97976.09;;;6.96;64.76
43115;BME280;28727;50.068;14.452;2023-10-19T02:37:54;97969.03;;;6.97;64.98
43115;BME280;28727;50.068;14.452;2023-10-19T02:40:28;97974.19;;;6.90;64.75
43115;BME280;28727;50.068;14.452;2023-10-19T02:43:05;97951.38;;;6.91;64.89
43115;BME280;28727;50.068;14.452;2023-10-19T02:45:42;97957.50;;;6.83;65.32
43115;BME280;28727;50.068;14.452;2023-10-19T02:48:14;97948.81;;;6.68;65.64
43115;BME280;28727;50.068;14.452;2023-10-19T02:50:46;97964.94;;;6.65;66.04
43115;BME280;28727;50.068;14.452;2023-10-19T02:53:18;97995.94;;;6.62;66.25
43115;BME280;28727;50.068;14.452;2023-10-19T02:55:57;97996.50;;;6.72;66.39
43115;BME280;28727;50.068;14.452;2023-10-19T02:58:33;97996.59;;;6.78;65.99
43115;BME280;28727;50.068;14.452;2023-10-19T03:01:12;97989.66;;;6.85;65.83
43115;BME280;28727;50.068;14.452;2023-10-19T03:04:08;97976.28;;;6.95;66.01
43115;BME280;28727;50.068;14.452;2023-10-19T03:06:44;97977.00;;;6.89;65.95
43115;BME280;28727;50.068;14.452;2023-10-19T03:09:17;97967.00;;;6.84;65.97
43115;BME280;28727;50.068;14.452;2023-10-19T03:12:07;97968.47;;;6.87;65.86
43115;BME280;28727;50.068;14.452;2023-10-19T03:14:42;97969.41;;;6.94;65.95
43115;BME280;28727;50.068;14.452;2023-10-19T03:17:17;97970.50;;;6.99;66.23
43115;BME280;28727;50.068;14.452;2023-10-19T03:19:53;97956.16;;;7.02;66.24
43115;BME280;28727;50.068;14.452;2023-10-19T03:22:24;97942.22;;;7.02;66.07
43115;BME280;28727;50.068;14.452;2023-10-19T03:25:01;97931.66;;;6.95;66.51
43115;BME280;28727;50.068;14.452;2023-10-19T03:27:54;97929.75;;;6.89;66.84
43115;BME280;28727;50.068;14.452;2023-10-19T03:30:30;97922.88;;;6.88;66.85
43115;BME280;28727;50.068;14.452;2023-10-19T03:33:07;97922.88;;;6.88;66.85
43115;BME280;28727;50.068;14.452;2023-10-19T03:35:44;97926.75;;;6.92;66.86
43115;BME280;28727;50.068;14.452;2023-10-19T03:38:20;97911.28;;;6.97;67.39
43115;BME280;28727;50.068;14.452;2023-10-19T03:40:54;97915.97;;;7.02;68.22
43115;BME280;28727;50.068;14.452;2023-10-19T03:43:31;97908.56;;;7.05;67.77
43115;BME280;28727;50.068;14.452;2023-10-19T03:46:03;97899.69;;;7.06;67.92
43115;BME280;28727;50.068;14.452;2023-10-19T03:48:53;97890.28;;;7.12;68.32
43115;BME280;28727;50.068;14.452;2023-10-19T03:51:31;97892.53;;;7.15;68.12
43115;BME280;28727;50.068;14.452;2023-10-19T03:54:14;97882.03;;;7.15;68.46
43115;BME280;28727;50.068;14.452;2023-10-19T03:57:01;97881.03;;;7.16;68.15
43115;BME280;28727;50.068;14.452;2023-10-19T03:59:41;97872.78;;;7.19;68.56
43115;BME280;28727;50.068;14.452;2023-10-19T04:02:13;97869.78;;;7.22;68.51
43115;BME280;28727;50.068;14.452;2023-10-19T04:04:45;97879.75;;;7.26;68.83
43115;BME280;28727;50.068;14.452;2023-10-19T04:07:23;97873.75;;;7.32;69.06
43115;BME280;28727;50.068;14.452;2023-10-19T04:09:57;97871.22;;;7.39;68.52
43115;BME280;28727;50.068;14.452;2023-10-19T04:13:01;97874.66;;;7.39;68.87
43115;BME280;28727;50.068;14.452;2023-10-19T04:15:35;97876.91;;;7.43;68.89
43115;BME280;28727;50.068;14.452;2023-10-19T04:18:09;97874.66;;;7.39;69.38
43115;BME280;28727;50.068;14.452;2023-10-19T04:20:41;97875.47;;;7.40;69.07
43115;BME280;28727;50.068;14.452;2023-10-19T04:23:24;97861.94;;;7.43;69.95
43115;BME280;28727;50.068;14.452;2023-10-19T04:25:59;97863.22;;;7.47;69.17
43115;BME280;28727;50.068;14.452;2023-10-19T04:28:40;97863.47;;;7.52;69.28
43115;BME280;28727;50.068;14.452;2023-10-19T04:31:31;97869.72;;;7.51;70.70
43115;BME280;28727;50.068;14.452;2023-10-19T04:34:05;97860.28;;;7.57;69.58
43115;BME280;28727;50.068;14.452;2023-10-19T04:36:41;97859.72;;;7.61;69.86
43115;BME280;28727;50.068;14.452;2023-10-19T04:39:33;97864.41;;;7.66;69.91
43115;BME280;28727;50.068;14.452;2023-10-19T04:42:11;97859.44;;;7.71;70.08
43115;BME280;28727;50.068;14.452;2023-10-19T04:44:43;97853.97;;;7.72;70.89
43115;BME280;28727;50.068;14.452;2023-10-19T04:47:15;97845.72;;;7.75;70.62
43115;BME280;28727;50.068;14.452;2023-10-19T04:49:47;97842.47;;;7.73;70.18
43115;BME280;28727;50.068;14.452;2023-10-19T04:52:20;97836.38;;;7.73;69.93
43115;BME280;28727;50.068;14.452;2023-10-19T04:54:52;97841.03;;;7.71;70.13
43115;BME280;28727;50.068;14.452;2023-10-19T04:57:25;97834.16;;;7.70;69.71
43115;BME280;28727;50.068;14.452;2023-10-19T05:00:17;97835.50;;;7.66;69.94
43115;BME280;28727;50.068;14.452;2023-10-19T05:02:53;97836.81;;;7.55;70.74
43115;BME280;28727;50.068;14.452;2023-10-19T05:05:25;97841.66;;;7.52;70.82
43115;BME280;28727;50.068;14.452;2023-10-19T05:07:57;97836.22;;;7.53;71.24
43115;BME280;28727;50.068;14.452;2023-10-19T05:10:31;97827.75;;;7.58;70.95
43115;BME280;28727;50.068;14.452;2023-10-19T05:13:06;97823.16;;;7.60;71.35
43115;BME280;28727;50.068;14.452;2023-10-19T05:15:50;97822.13;;;7.61;71.39
43115;BME280;28727;50.068;14.452;2023-10-19T05:18:22;97830.22;;;7.59;71.55
43115;BME280;28727;50.068;14.452;2023-10-19T05:20:54;97841.53;;;7.60;71.28
43115;BME280;28727;50.068;14.452;2023-10-19T05:23:31;97840.97;;;7.64;71.58
43115;BME280;28727;50.068;14.452;2023-10-19T05:26:06;97821.19;;;7.68;71.65
43115;BME280;28727;50.068;14.452;2023-10-19T05:28:38;97818.38;;;7.70;72.21
43115;BME280;28727;50.068;14.452;2023-10-19T05:31:10;97814.38;;;7.74;71.31
43115;BME280;28727;50.068;14.452;2023-10-19T05:33:44;97810.56;;;7.76;71.83
43115;BME280;28727;50.068;14.452;2023-10-19T05:36:18;97817.44;;;7.77;71.43
43115;BME280;28727;50.068;14.452;2023-10-19T05:38:50;97819.44;;;7.75;71.52
43115;BME280;28727;50.068;14.452;2023-10-19T05:41:26;97815.75;;;7.70;71.45
43115;BME280;28727;50.068;14.452;2023-10-19T05:44:04;97817.25;;;7.79;71.84
43115;BME280;28727;50.068;14.452;2023-10-19T05:46:38;97806.97;;;7.84;71.84
43115;BME280;28727;50.068;14.452;2023-10-19T05:49:13;97803.53;;;7.83;72.26
43115;BME280;28727;50.068;14.452;2023-10-19T05:51:47;97800.03;;;7.76;72.11
43115;BME280;28727;50.068;14.452;2023-10-19T05:54:19;97799.59;;;7.73;73.06
43115;BME280;28727;50.068;14.452;2023-10-19T05:56:55;97802.22;;;7.73;73.09
43115;BME280;28727;50.068;14.452;2023-10-19T05:59:28;97798.97;;;7.71;73.27
43115;BME280;28727;50.068;14.452;2023-10-19T06:02:08;97795.09;;;7.67;73.55
43115;BME280;28727;50.068;14.452;2023-10-19T06:04:39;97788.66;;;7.69;73.10
43115;BME280;28727;50.068;14.452;2023-10-19T06:07:15;97785.56;;;7.66;74.04
43115;BME280;28727;50.068;14.452;2023-10-19T06:09:53;97778.09;;;7.63;74.12
43115;BME280;28727;50.068;14.452;2023-10-19T06:12:25;97776.63;;;7.60;73.22
43115;BME280;28727;50.068;14.452;2023-10-19T06:15:00;97790.59;;;7.61;74.24
43115;BME280;28727;50.068;14.452;2023-10-19T06:17:56;97777.91;;;7.64;74.13
43115;BME280;28727;50.068;14.452;2023-10-19T06:20:28;97788.84;;;7.68;73.67
43115;BME280;28727;50.068;14.452;2023-10-19T06:23:01;97778.16;;;7.69;73.75
43115;BME280;28727;50.068;14.452;2023-10-19T06:25:36;97777.44;;;7.61;73.84
43115;BME280;28727;50.068;14.452;2023-10-19T06:28:08;97772.81;;;7.63;73.97
43115;BME280;28727;50.068;14.452;2023-10-19T06:30:41;97778.66;;;7.58;74.29
43115;BME280;28727;50.068;14.452;2023-10-19T06:33:13;97783.09;;;7.58;74.84
43115;BME280;28727;50.068;14.452;2023-10-19T06:35:45;97774.22;;;7.59;75.27
43115;BME280;28727;50.068;14.452;2023-10-19T06:38:17;97776.28;;;7.63;75.14
43115;BME280;28727;50.068;14.452;2023-10-19T06:40:50;97774.06;;;7.67;75.08
43115;BME280;28727;50.068;14.452;2023-10-19T06:43:23;97770.69;;;7.73;75.05
43115;BME280;28727;50.068;14.452;2023-10-19T06:46:04;97785.47;;;7.74;74.69
43115;BME280;28727;50.068;14.452;2023-10-19T06:48:40;97781.44;;;7.78;75.37
43115;BME280;28727;50.068;14.452;2023-10-19T06:51:12;97796.72;;;7.89;74.32
43115;BME280;28727;50.068;14.452;2023-10-19T06:53:44;97804.44;;;7.97;74.28
43115;BME280;28727;50.068;14.452;2023-10-19T06:56:15;97802.69;;;8.04;74.46
43115;BME280;28727;50.068;14.452;2023-10-19T06:58:47;97810.63;;;8.11;74.50
43115;BME280;28727;50.068;14.452;2023-10-19T07:01:19;97809.06;;;8.16;74.06
43115;BME280;28727;50.068;14.452;2023-10-19T07:03:55;97806.66;;;8.21;73.97
43115;BME280;28727;50.068;14.452;2023-10-19T07:06:28;97790.28;;;8.26;73.65
43115;BME280;28727;50.068;14.452;2023-10-19T07:09:05;97784.94;;;8.34;73.38
43115;BME280;28727;50.068;14.452;2023-10-19T07:11:37;97774.81;;;8.38;73.45
43115;BME280;28727;50.068;14.452;2023-10-19T07:14:09;97775.69;;;8.45;73.35
43115;BME280;28727;50.068;14.452;2023-10-19T07:16:46;97771.66;;;8.49;73.81
43115;BME280;28727;50.068;14.452;2023-10-19T07:19:18;97772.50;;;8.56;72.82
43115;BME280;28727;50.068;14.452;2023-10-19T07:21:50;97771.69;;;8.55;73.55
43115;BME280;28727;50.068;14.452;2023-10-19T07:24:33;97767.69;;;8.59;73.70
43115;BME280;28727;50.068;14.452;2023-10-19T07:27:08;97776.59;;;8.65;73.64
43115;BME280;28727;50.068;14.452;2023-10-19T07:30:08;97782.69;;;8.66;73.24
43115;BME280;28727;50.068;14.452;2023-10-19T07:32:41;97767.31;;;8.69;73.31
43115;BME280;28727;50.068;14.452;2023-10-19T07:35:15;97755.59;;;8.78;73.65
43115;BME280;28727;50.068;14.452;2023-10-19T07:37:47;97746.31;;;8.82;72.67
43115;BME280;28727;50.068;14.452;2023-10-19T07:40:20;97746.09;;;8.84;72.66
43115;BME280;28727;50.068;14.452;2023-10-19T07:42:53;97737.41;;;8.83;72.75
43115;BME280;28727;50.068;14.452;2023-10-19T07:45:28;97738.19;;;8.77;72.67
43115;BME280;28727;50.068;14.452;2023-10-19T07:48:02;97736.56;;;8.76;74.07
43115;BME280;28727;50.068;14.452;2023-10-19T07:50:39;97757.25;;;8.86;73.51
43115;BME280;28727;50.068;14.452;2023-10-19T07:53:12;97757.09;;;8.94;73.17
43115;BME280;28727;50.068;14.452;2023-10-19T07:55:44;97758.09;;;8.93;72.26
43115;BME280;28727;50.068;14.452;2023-10-19T07:58:18;97759.31;;;8.97;72.54
43115;BME280;28727;50.068;14.452;2023-10-19T08:00:52;97768.25;;;9.02;72.17
43115;BME280;28727;50.068;14.452;2023-10-19T08:03:30;97764.81;;;9.09;72.62
43115;BME280;28727;50.068;14.452;2023-10-19T08:06:02;97767.88;;;9.12;71.88
43115;BME280;28727;50.068;14.452;2023-10-19T08:08:38;97769.09;;;9.16;72.44
43115;BME280;28727;50.068;14.452;2023-10-19T08:11:13;97776.59;;;9.19;72.81
43115;BME280;28727;50.068;14.452;2023-10-19T08:13:45;97776.03;;;9.24;74.10
43115;BME280;28727;50.068;14.452;2023-10-19T08:16:21;97771.16;;;9.27;73.42
43115;BME280;28727;50.068;14.452;2023-10-19T08:18:54;97760.59;;;9.27;73.71
43115;BME280;28727;50.068;14.452;2023-10-19T08:21:28;97764.28;;;9.33;73.64
43115;BME280;28727;50.068;14.452;2023-10-19T08:24:00;97754.34;;;9.28;73.35
43115;BME280;28727;50.068;14.452;2023-10-19T08:26:39;97750.06;;;9.21;74.30
43115;BME280;28727;50.068;14.452;2023-10-19T08:29:13;97739.50;;;9.21;74.92
43115;BME280;28727;50.068;14.452;2023-10-19T08:31:45;97736.28;;;9.32;74.74
43115;BME280;28727;50.068;14.452;2023-10-19T08:34:17;97742.59;;;9.37;74.04
43115;BME280;28727;50.068;14.452;2023-10-19T08:36:49;97743.63;;;9.50;73.28
43115;BME280;28727;50.068;14.452;2023-10-19T08:39:32;97747.28;;;9.62;72.92
43115;BME280;28727;50.068;14.452;2023-10-19T08:42:07;97737.94;;;9.72;72.66
43115;BME280;28727;50.068;14.452;2023-10-19T08:44:42;97731.84;;;9.78;72.82
43115;BME280;28727;50.068;14.452;2023-10-19T08:47:13;97727.00;;;9.82;72.48
43115;BME280;28727;50.068;14.452;2023-10-19T08:49:47;97728.84;;;9.81;71.68
43115;BME280;28727;50.068;14.452;2023-10-19T08:52:20;97732.47;;;9.80;72.06
43115;BME280;28727;50.068;14.452;2023-10-19T08:54:54;97728.41;;;9.78;71.73
43115;BME280;28727;50.068;14.452;2023-10-19T08:57:26;97724.56;;;9.80;71.42
43115;BME280;28727;50.068;14.452;2023-10-19T09:00:00;97715.22;;;9.78;71.47
43115;BME280;28727;50.068;14.452;2023-10-19T09:02:34;97709.16;;;9.77;71.30
43115;BME280;28727;50.068;14.452;2023-10-19T09:05:06;97714.63;;;9.69;71.60
43115;BME280;28727;50.068;14.452;2023-10-19T09:07:43;97723.56;;;9.62;72.20
43115;BME280;28727;50.068;14.452;2023-10-19T09:10:16;97738.97;;;9.65;71.74
43115;BME280;28727;50.068;14.452;2023-10-19T09:12:59;97736.75;;;9.68;71.40
43115;BME280;28727;50.068;14.452;2023-10-19T09:15:32;97735.53;;;9.71;72.64
43115;BME280;28727;50.068;14.452;2023-10-19T09:18:12;97736.94;;;9.86;72.58
43115;BME280;28727;50.068;14.452;2023-10-19T09:20:50;97724.75;;;9.99;71.49
43115;BME280;28727;50.068;14.452;2023-10-19T09:23:29;97722.94;;;9.99;71.70
43115;BME280;28727;50.068;14.452;2023-10-19T09:26:03;97722.50;;;9.96;71.72
43115;BME280;28727;50.068;14.452;2023-10-19T09:28:39;97717.66;;;9.93;71.07
43115;BME280;28727;50.068;14.452;2023-10-19T09:31:17;97705.91;;;9.89;71.84
43115;BME280;28727;50.068;14.452;2023-10-19T09:33:54;97702.03;;;9.98;71.69
43115;BME280;28727;50.068;14.452;2023-10-19T09:36:29;97703.63;;;10.12;70.94
43115;BME280;28727;50.068;14.452;2023-10-19T09:39:02;97702.59;;;10.26;70.59
43115;BME280;28727;50.068;14.452;2023-10-19T09:41:37;97703.38;;;10.40;70.22
43115;BME280;28727;50.068;14.452;2023-10-19T09:44:11;97703.97;;;10.48;69.66
43115;BME280;28727;50.068;14.452;2023-10-19T09:46:44;97714.91;;;10.58;68.61
43115;BME280;28727;50.068;14.452;2023-10-19T09:49:19;97706.31;;;10.70;67.66
43115;BME280;28727;50.068;14.452;2023-10-19T09:51:57;97711.16;;;10.79;66.73
43115;BME280;28727;50.068;14.452;2023-10-19T09:54:59;97707.44;;;10.93;66.47
43115;BME280;28727;50.068;14.452;2023-10-19T09:57:39;97707.34;;;11.13;65.72
43115;BME280;28727;50.068;14.452;2023-10-19T10:00:17;97710.03;;;11.31;65.01
43115;BME280;28727;50.068;14.452;2023-10-19T10:02:55;97710.72;;;11.52;64.24
43115;BME280;28727;50.068;14.452;2023-10-19T10:10:52;97688.19;;;12.71;60.43
43115;BME280;28727;50.068;14.452;2023-10-19T10:16:04;97676.59;;;13.90;57.12
43115;BME280;28727;50.068;14.452;2023-10-19T10:18:37;97682.50;;;14.39;56.10
43115;BME280;28727;50.068;14.452;2023-10-19T10:21:21;97685.06;;;14.74;54.19
43115;BME280;28727;50.068;14.452;2023-10-19T10:23:56;97665.09;;;15.00;53.53
43115;BME280;28727;50.068;14.452;2023-10-19T10:26:30;97657.66;;;15.30;53.56
43115;BME280;28727;50.068;14.452;2023-10-19T10:29:13;97665.81;;;15.40;52.76
43115;BME280;28727;50.068;14.452;2023-10-19T10:31:54;97667.72;;;15.45;52.64
43115;BME280;28727;50.068;14.452;2023-10-19T10:34:42;97660.31;;;15.47;52.04
43115;BME280;28727;50.068;14.452;2023-10-19T10:37:21;97661.13;;;15.31;52.14
43115;BME280;28727;50.068;14.452;2023-10-19T10:39:58;97665.84;;;15.12;51.92
43115;BME280;28727;50.068;14.452;2023-10-19T10:42:31;97664.47;;;15.26;51.64
43115;BME280;28727;50.068;14.452;2023-10-19T10:45:04;97653.38;;;15.29;51.77
43115;BME280;28727;50.068;14.452;2023-10-19T10:47:37;97646.44;;;15.45;51.86
43115;BME280;28727;50.068;14.452;2023-10-19T10:50:09;97640.44;;;15.66;51.62
43115;BME280;28727;50.068;14.452;2023-10-19T10:52:42;97635.47;;;15.91;51.27
43115;BME280;28727;50.068;14.452;2023-10-19T10:55:15;97631.88;;;16.19;49.39
43115;BME280;28727;50.068;14.452;2023-10-19T10:57:49;97627.72;;;16.28;48.11
43115;BME280;28727;50.068;14.452;2023-10-19T11:00:23;97620.88;;;16.37;48.71
43115;BME280;28727;50.068;14.452;2023-10-19T11:03:02;97616.19;;;16.45;48.50
43115;BME280;28727;50.068;14.452;2023-10-19T11:05:37;97606.22;;;16.35;49.12
43115;BME280;28727;50.068;14.452;2023-10-19T11:08:14;97597.72;;;16.38;49.56
43115;BME280;28727;50.068;14.452;2023-10-19T11:10:51;97602.00;;;16.39;49.04
43115;BME280;28727;50.068;14.452;2023-10-19T11:13:25;97598.91;;;16.25;49.15
43115;BME280;28727;50.068;14.452;2023-10-19T11:15:56;97592.63;;;16.15;49.44
43115;BME280;28727;50.068;14.452;2023-10-19T11:18:37;97590.91;;;16.04;49.52
43115;BME280;28727;50.068;14.452;2023-10-19T11:21:12;97585.91;;;16.07;49.96
43115;BME280;28727;50.068;14.452;2023-10-19T11:23:49;97581.38;;;16.29;49.82
43115;BME280;28727;50.068;14.452;2023-10-19T11:26:24;97582.28;;;16.40;49.14
43115;BME280;28727;50.068;14.452;2023-10-19T11:29:00;97580.66;;;16.39;48.86
43115;BME280;28727;50.068;14.452;2023-10-19T11:31:33;97572.56;;;16.07;49.60
43115;BME280;28727;50.068;14.452;2023-10-19T11:34:14;97573.53;;;15.79;50.27
43115;BME280;28727;50.068;14.452;2023-10-19T11:36:54;97559.06;;;15.37;51.53
43115;BME280;28727;50.068;14.452;2023-10-19T11:39:28;97568.56;;;14.99;52.27
43115;BME280;28727;50.068;14.452;2023-10-19T11:42:00;97569.66;;;14.70;53.46
43115;BME280;28727;50.068;14.452;2023-10-19T11:44:32;97568.00;;;14.52;53.84
43115;BME280;28727;50.068;14.452;2023-10-19T11:47:05;97574.63;;;14.66;53.82
43115;BME280;28727;50.068;14.452;2023-10-19T11:49:37;97578.94;;;14.84;53.82
43115;BME280;28727;50.068;14.452;2023-10-19T11:52:09;97570.00;;;14.90;53.70
43115;BME280;28727;50.068;14.452;2023-10-19T11:54:41;97567.75;;;14.99;53.06
43115;BME280;28727;50.068;14.452;2023-10-19T11:57:17;97569.59;;;14.98;53.12
43115;BME280;28727;50.068;14.452;2023-10-19T11:59:48;97566.88;;;15.10;52.63
43115;BME280;28727;50.068;14.452;2023-10-19T12:02:30;97560.56;;;15.33;52.51
43115;BME280;28727;50.068;14.452;2023-10-19T12:05:05;97559.44;;;15.45;51.96
43115;BME280;28727;50.068;14.452;2023-10-19T12:07:41;97557.03;;;15.61;52.26
43115;BME280;28727;50.068;14.452;2023-10-19T12:10:16;97558.28;;;15.75;51.89
43115;BME280;28727;50.068;14.452;2023-10-19T12:12:52;97548.84;;;16.06;50.88
43115;BME280;28727;50.068;14.452;2023-10-19T12:15:32;97549.06;;;16.26;50.11
43115;BME280;28727;50.068;14.452;2023-10-19T12:18:04;97554.66;;;16.24;49.79
43115;BME280;28727;50.068;14.452;2023-10-19T12:20:39;97548.88;;;16.32;49.83
43115;BME280;28727;50.068;14.452;2023-10-19T12:23:17;97546.03;;;16.39;49.68
43115;BME280;28727;50.068;14.452;2023-10-19T12:25:49;97544.06;;;16.29;49.60
43115;BME280;28727;50.068;14.452;2023-10-19T12:28:54;97545.06;;;16.23;49.65
43115;BME280;28727;50.068;14.452;2023-10-19T12:31:28;97545.13;;;16.28;49.59
43115;BME280;28727;50.068;14.452;2023-10-19T12:34:02;97539.84;;;16.33;49.77
43115;BME280;28727;50.068;14.452;2023-10-19T12:36:38;97547.22;;;16.26;50.21
43115;BME280;28727;50.068;14.452;2023-10-19T12:39:12;97555.59;;;16.13;50.33
43115;BME280;28727;50.068;14.452;2023-10-19T12:42:04;97543.81;;;16.09;50.07
43115;BME280;28727;50.068;14.452;2023-10-19T12:44:37;97547.97;;;16.22;49.79
43115;BME280;28727;50.068;14.452;2023-10-19T12:47:18;97549.44;;;16.34;49.42
43115;BME280;28727;50.068;14.452;2023-10-19T12:49:56;97541.97;;;16.31;49.54
43115;BME280;28727;50.068;14.452;2023-10-19T12:52:29;97535.22;;;16.24;49.78
43115;BME280;28727;50.068;14.452;2023-10-19T12:55:04;97540.78;;;16.22;50.04
43115;BME280;28727;50.068;14.452;2023-10-19T12:57:41;97536.22;;;16.18;50.30
43115;BME280;28727;50.068;14.452;2023-10-19T13:00:16;97532.25;;;15.98;50.58
43115;BME280;28727;50.068;14.452;2023-10-19T13:03:24;97525.72;;;15.68;51.46
43115;BME280;28727;50.068;14.452;2023-10-19T13:06:04;97519.41;;;15.74;51.65
43115;BME280;28727;50.068;14.452;2023-10-19T13:08:39;97507.13;;;15.73;51.58
43115;BME280;28727;50.068;14.452;2023-10-19T13:11:12;97506.22;;;15.62;52.01
43115;BME280;28727;50.068;14.452;2023-10-19T13:13:49;97493.41;;;15.59;51.62
43115;BME280;28727;50.068;14.452;2023-10-19T13:16:21;97491.16;;;15.34;52.21
43115;BME280;28727;50.068;14.452;2023-10-19T13:18:53;97477.56;;;15.14;52.87
43115;BME280;28727;50.068;14.452;2023-10-19T13:21:25;97473.06;;;14.98;53.14
43115;BME280;28727;50.068;14.452;2023-10-19T13:24:04;97466.56;;;14.89;53.78
43115;BME280;28727;50.068;14.452;2023-10-19T13:26:37;97461.06;;;14.79;53.71
43115;BME280;28727;50.068;14.452;2023-10-19T13:29:11;97456.97;;;14.71;53.97
43115;BME280;28727;50.068;14.452;2023-10-19T13:31:47;97459.63;;;14.71;54.26
43115;BME280;28727;50.068;14.452;2023-10-19T13:34:24;97463.09;;;14.55;54.72
43115;BME280;28727;50.068;14.452;2023-10-19T13:36:56;97461.53;;;14.42;55.21
43115;BME280;28727;50.068;14.452;2023-10-19T13:39:28;97456.56;;;14.34;55.50
43115;BME280;28727;50.068;14.452;2023-10-19T13:42:05;97464.84;;;14.21;55.95
43115;BME280;28727;50.068;14.452;2023-10-19T13:44:38;97462.50;;;14.08;56.53
43115;BME280;28727;50.068;14.452;2023-10-19T13:47:10;97461.00;;;14.00;56.50
43115;BME280;28727;50.068;14.452;2023-10-19T13:49:43;97470.72;;;13.94;57.59
43115;BME280;28727;50.068;14.452;2023-10-19T13:52:15;97463.91;;;13.99;57.32